« Back
NWS Peachtree City, Ga » Text Product » ATL Terminal Aerodrome Forecast


Printer-friendly Version
Current Version              Previous Versions:   1  2  3  4  5  6  7  8  9  

Terminal Aerodrome Forecast

229
FTUS42 KFFC 250145 AAA
TAFATL
TAF AMD
KATL 250145Z 2502/2606 17003KT P6SM FEW070 BKN120
     FM250600 16003KT P6SM VCSH BKN050
     FM250900 15005KT 5SM -RA BR SCT010 OVC025
      TEMPO 2511/2515 2SM SHRA BR BKN010
     FM251700 21008KT P6SM VCSH SCT020 BKN040 PROB30 2520/2602
      VRB15G25KT 2SM TSRA BR BKN015CB
     FM260200 25007KT P6SM SCT050 BKN100=

USA.gov is the U.S. government's official web portal to all federal, state and local government web resources and services.